createdAt,value
2018-01-04T00:00:11.744Z,7.32
2018-01-04T00:01:12.088Z,7.32
2018-01-04T00:02:11.654Z,7.32
2018-01-04T00:03:12.310Z,7.32
2018-01-04T00:04:12.677Z,7.31
2018-01-04T00:05:12.580Z,7.31
2018-01-04T00:06:12.133Z,7.3
2018-01-04T00:07:11.601Z,7.29
2018-01-04T00:08:12.374Z,7.3
2018-01-04T00:09:11.790Z,7.29
2018-01-04T00:10:12.190Z,7.3
2018-01-04T00:11:11.980Z,7.29
2018-01-04T00:12:12.250Z,7.29
2018-01-04T00:13:11.873Z,7.29
2018-01-04T00:14:12.525Z,7.29
2018-01-04T00:15:12.550Z,7.28
2018-01-04T00:16:12.113Z,7.28
2018-01-04T00:17:11.979Z,7.28
2018-01-04T00:18:11.963Z,7.27
2018-01-04T00:19:12.814Z,7.28
2018-01-04T00:20:12.548Z,7.28
2018-01-04T00:21:11.616Z,7.27
2018-01-04T00:22:12.111Z,7.26
2018-01-04T00:23:11.842Z,7.27
2018-01-04T00:24:12.397Z,7.27
2018-01-04T00:25:12.276Z,7.27
2018-01-04T00:26:11.978Z,7.28
2018-01-04T00:27:11.616Z,7.27
2018-01-04T00:28:12.116Z,7.28
2018-01-04T00:29:12.595Z,7.28
2018-01-04T00:30:12.405Z,7.28
2018-01-04T00:31:12.510Z,7.28
2018-01-04T00:32:12.426Z,7.29
2018-01-04T00:33:12.278Z,7.29
2018-01-04T00:34:11.806Z,7.29
2018-01-04T00:35:12.379Z,7.3
2018-01-04T00:36:12.224Z,7.31
2018-01-04T00:37:11.799Z,7.32
2018-01-04T00:38:12.193Z,7.32
2018-01-04T00:39:12.427Z,7.33
2018-01-04T00:40:11.767Z,7.33
2018-01-04T00:41:12.470Z,7.34
2018-01-04T00:42:12.174Z,7.33
2018-01-04T00:43:11.886Z,7.33
2018-01-04T00:44:11.720Z,7.33
2018-01-04T00:45:12.362Z,7.33
2018-01-04T00:46:11.707Z,7.32
2018-01-04T00:47:12.122Z,7.33
2018-01-04T00:48:11.731Z,7.32
2018-01-04T00:49:12.392Z,7.33
2018-01-04T00:50:12.056Z,7.34
2018-01-04T00:51:12.567Z,7.36
2018-01-04T00:52:12.255Z,7.36
2018-01-04T00:53:11.860Z,7.36
2018-01-04T00:54:11.548Z,7.37
2018-01-04T00:55:11.723Z,7.37
2018-01-04T00:56:12.350Z,7.35
2018-01-04T00:57:11.806Z,7.36
2018-01-04T00:58:12.364Z,7.36
2018-01-04T00:59:11.976Z,7.36
2018-01-04T01:00:12.224Z,7.36
2018-01-04T01:01:11.433Z,7.34
2018-01-04T01:02:11.759Z,7.34
2018-01-04T01:03:11.218Z,7.33
2018-01-04T01:04:12.320Z,7.35
2018-01-04T01:05:12.187Z,7.35
2018-01-04T01:06:12.366Z,7.35
2018-01-04T01:07:11.809Z,7.36
2018-01-04T01:08:12.255Z,7.34
2018-01-04T01:09:11.794Z,7.35
2018-01-04T01:10:12.188Z,7.34
2018-01-04T01:11:11.735Z,7.34
2018-01-04T01:12:11.539Z,7.33
2018-01-04T01:13:12.056Z,7.33
2018-01-04T01:14:11.535Z,7.32
2018-01-04T01:15:12.417Z,7.33
2018-01-04T01:16:12.362Z,7.32
2018-01-04T01:17:11.506Z,7.32
2018-01-04T01:18:12.065Z,7.32
2018-01-04T01:19:12.180Z,7.33
2018-01-04T01:20:11.775Z,7.33
2018-01-04T01:21:11.465Z,7.33
2018-01-04T01:22:12.145Z,7.35
2018-01-04T01:23:11.692Z,7.33
2018-01-04T01:24:12.079Z,7.34
2018-01-04T01:25:11.527Z,7.33
2018-01-04T01:26:11.352Z,7.34
2018-01-04T01:27:12.015Z,7.33
2018-01-04T01:28:11.802Z,7.32
2018-01-04T01:29:11.372Z,7.31
2018-01-04T01:30:12.189Z,7.31
2018-01-04T01:31:12.093Z,7.3
2018-01-04T01:32:12.481Z,7.29
2018-01-04T01:33:12.833Z,7.29
2018-01-04T01:34:12.098Z,7.29
2018-01-04T01:35:12.838Z,7.28
2018-01-04T01:36:12.214Z,7.27
2018-01-04T01:37:12.452Z,7.28
2018-01-04T01:38:12.203Z,7.28
2018-01-04T01:39:12.897Z,7.28
2018-01-04T01:40:12.599Z,7.28
2018-01-04T01:41:12.162Z,7.29
2018-01-04T01:42:12.910Z,7.28
2018-01-04T01:43:13.068Z,7.28
2018-01-04T01:44:12.755Z,7.28
2018-01-04T01:45:13.380Z,7.27
2018-01-04T01:46:11.993Z,7.27
2018-01-04T01:47:12.319Z,7.28
2018-01-04T01:48:12.280Z,7.28
2018-01-04T01:49:13.009Z,7.27
2018-01-04T01:50:12.179Z,7.28
2018-01-04T01:51:12.908Z,7.27
2018-01-04T01:52:12.127Z,7.27
2018-01-04T01:53:12.158Z,7.27
2018-01-04T01:54:12.193Z,7.26
2018-01-04T01:55:12.520Z,7.26
2018-01-04T01:56:12.268Z,7.25
2018-01-04T01:57:12.861Z,7.25
2018-01-04T01:58:12.370Z,7.25
2018-01-04T01:59:12.345Z,7.26
2018-01-04T02:00:12.900Z,7.27
2018-01-04T02:01:12.713Z,7.27
2018-01-04T02:02:12.122Z,7.25
2018-01-04T02:03:12.169Z,7.27
2018-01-04T02:04:12.676Z,7.27
2018-01-04T02:05:11.935Z,7.29
2018-01-04T02:06:12.322Z,7.28
2018-01-04T02:07:12.445Z,7.28
2018-01-04T02:08:11.860Z,7.29
2018-01-04T02:09:12.633Z,7.29
2018-01-04T02:10:13.125Z,7.29
2018-01-04T02:11:12.599Z,7.31
2018-01-04T02:12:12.386Z,7.33
2018-01-04T02:13:11.986Z,7.33
2018-01-04T02:14:12.532Z,7.33
2018-01-04T02:15:11.910Z,7.33
2018-01-04T02:16:12.354Z,7.33
2018-01-04T02:17:12.425Z,7.33
2018-01-04T02:18:12.278Z,7.33
2018-01-04T02:19:12.542Z,7.34
2018-01-04T02:20:12.706Z,7.33
2018-01-04T02:21:11.863Z,7.35
2018-01-04T02:22:12.430Z,7.35
2018-01-04T02:23:11.821Z,7.35
2018-01-04T02:24:12.255Z,7.35
2018-01-04T02:25:12.044Z,7.34
2018-01-04T02:26:12.709Z,7.35
2018-01-04T02:27:12.148Z,7.34
2018-01-04T02:28:12.359Z,7.34
2018-01-04T02:29:12.058Z,7.35
2018-01-04T02:30:11.900Z,7.34
2018-01-04T02:31:12.151Z,7.34
2018-01-04T02:32:12.049Z,7.33
2018-01-04T02:33:12.877Z,7.34
2018-01-04T02:34:12.390Z,7.34
2018-01-04T02:35:12.397Z,7.34
2018-01-04T02:36:11.869Z,7.34
2018-01-04T02:37:12.535Z,7.34
2018-01-04T02:38:12.058Z,7.33
2018-01-04T02:39:12.757Z,7.32
2018-01-04T02:40:12.621Z,7.33
2018-01-04T02:41:12.883Z,7.32
2018-01-04T02:42:12.161Z,7.35
2018-01-04T02:43:12.168Z,7.34
2018-01-04T02:44:12.583Z,7.34
2018-01-04T02:45:11.929Z,7.35
2018-01-04T02:46:12.033Z,7.34
2018-01-04T02:47:12.583Z,7.34
2018-01-04T02:48:11.896Z,7.34
2018-01-04T02:49:12.152Z,7.33
2018-01-04T02:50:12.235Z,7.33
2018-01-04T02:51:12.585Z,7.33
2018-01-04T02:52:11.964Z,7.32
2018-01-04T02:53:12.457Z,7.32
2018-01-04T02:54:12.701Z,7.32
2018-01-04T02:55:11.942Z,7.33
2018-01-04T02:56:12.215Z,7.31
2018-01-04T02:57:12.435Z,7.31
2018-01-04T02:58:12.542Z,7.3
2018-01-04T02:59:12.752Z,7.32
2018-01-04T03:00:11.897Z,7.31
2018-01-04T03:01:11.911Z,7.31
2018-01-04T03:02:12.137Z,7.3
2018-01-04T03:03:12.576Z,7.31
2018-01-04T03:04:12.864Z,7.31
2018-01-04T03:05:13.075Z,7.31
2018-01-04T03:06:12.443Z,7.31
2018-01-04T03:07:12.776Z,7.31
2018-01-04T03:08:13.084Z,7.31
2018-01-04T03:09:12.464Z,7.32
2018-01-04T03:10:12.801Z,7.31
2018-01-04T03:11:13.403Z,7.31
2018-01-04T03:12:12.847Z,7.31
2018-01-04T03:13:12.340Z,7.3
2018-01-04T03:14:12.690Z,7.31
2018-01-04T03:15:12.724Z,7.3
2018-01-04T03:16:12.966Z,7.31
2018-01-04T03:17:12.212Z,7.31
2018-01-04T03:18:12.497Z,7.31
2018-01-04T03:19:12.726Z,7.3
2018-01-04T03:20:13.058Z,7.31
2018-01-04T03:21:12.501Z,7.31
2018-01-04T03:22:12.833Z,7.31
2018-01-04T03:23:13.019Z,7.3
2018-01-04T03:24:12.195Z,7.31
2018-01-04T03:25:12.483Z,7.31
2018-01-04T03:26:12.396Z,7.31
2018-01-04T03:27:12.657Z,7.32
2018-01-04T03:28:12.800Z,7.31
2018-01-04T03:29:12.808Z,7.32
2018-01-04T03:30:12.733Z,7.33
2018-01-04T03:31:12.994Z,7.32
2018-01-04T03:32:12.269Z,7.33
2018-01-04T03:33:11.458Z,7.32
2018-01-04T03:34:11.582Z,7.32
2018-01-04T03:35:11.928Z,7.34
2018-01-04T03:36:11.508Z,7.34
2018-01-04T03:37:11.950Z,7.34
2018-01-04T03:38:11.216Z,7.35
2018-01-04T03:39:11.444Z,7.34
2018-01-04T03:40:11.651Z,7.35
2018-01-04T03:41:11.922Z,7.35
2018-01-04T03:42:12.134Z,7.34
2018-01-04T03:43:11.459Z,7.34
2018-01-04T03:44:11.682Z,7.35
2018-01-04T03:45:11.926Z,7.37
2018-01-04T03:46:11.488Z,7.36
2018-01-04T03:47:11.805Z,7.36
2018-01-04T03:48:12.069Z,7.37
2018-01-04T03:49:11.234Z,7.36
2018-01-04T03:50:11.491Z,7.36
2018-01-04T03:51:11.599Z,7.36
2018-01-04T03:52:11.712Z,7.36
2018-01-04T03:53:11.974Z,7.36
2018-01-04T03:54:11.253Z,7.35
2018-01-04T03:55:11.662Z,7.36
2018-01-04T03:56:11.980Z,7.36
2018-01-04T03:57:11.566Z,7.35
2018-01-04T03:58:11.677Z,7.35
2018-01-04T03:59:12.069Z,7.37
2018-01-04T04:00:11.386Z,7.35
2018-01-04T04:01:11.607Z,7.35
2018-01-04T04:02:11.965Z,7.35
2018-01-04T04:03:12.038Z,7.35
2018-01-04T04:04:12.470Z,7.35
2018-01-04T04:05:12.645Z,7.37
2018-01-04T04:06:12.752Z,7.37
2018-01-04T04:07:12.061Z,7.37
2018-01-04T04:08:12.501Z,7.37
2018-01-04T04:09:12.859Z,7.37
2018-01-04T04:10:12.021Z,7.36
2018-01-04T04:11:12.130Z,7.36
2018-01-04T04:12:12.339Z,7.36
2018-01-04T04:13:12.449Z,7.36
2018-01-04T04:14:12.803Z,7.36
2018-01-04T04:15:12.007Z,7.36
2018-01-04T04:16:12.105Z,7.36
2018-01-04T04:17:12.307Z,7.37
2018-01-04T04:18:12.552Z,7.36
2018-01-04T04:19:11.966Z,7.36
2018-01-04T04:20:12.242Z,7.37
2018-01-04T04:21:12.570Z,7.36
2018-01-04T04:22:12.002Z,7.36
2018-01-04T04:23:12.251Z,7.36
2018-01-04T04:24:12.462Z,7.36
2018-01-04T04:25:12.782Z,7.36
2018-01-04T04:26:12.138Z,7.36
2018-01-04T04:27:12.004Z,7.36
2018-01-04T04:28:12.296Z,7.37
2018-01-04T04:29:12.715Z,7.36
2018-01-04T04:30:12.920Z,7.37
2018-01-04T04:31:12.142Z,7.37
2018-01-04T04:32:12.491Z,7.37
2018-01-04T04:33:12.712Z,7.37
2018-01-04T04:34:12.030Z,7.36
2018-01-04T04:35:12.338Z,7.36
2018-01-04T04:36:12.534Z,7.36
2018-01-04T04:37:12.636Z,7.37
2018-01-04T04:38:11.757Z,7.36
2018-01-04T04:39:12.178Z,7.35
2018-01-04T04:40:12.510Z,7.36
2018-01-04T04:41:11.890Z,7.36
2018-01-04T04:42:12.195Z,7.34
2018-01-04T04:43:12.359Z,7.35
2018-01-04T04:44:14.182Z,7.34
2018-01-04T04:45:12.660Z,7.34
2018-01-04T04:46:12.206Z,7.34
2018-01-04T04:47:12.426Z,7.32
2018-01-04T04:48:12.022Z,7.31
2018-01-04T04:49:12.218Z,7.31
2018-01-04T04:50:12.619Z,7.31
2018-01-04T04:51:11.962Z,7.3
2018-01-04T04:52:12.369Z,7.29
2018-01-04T04:53:11.749Z,7.3
2018-01-04T04:54:12.064Z,7.28
2018-01-04T04:55:12.248Z,7.27
2018-01-04T04:56:12.488Z,7.26
2018-01-04T04:57:11.680Z,7.24
2018-01-04T04:58:11.832Z,7.24
2018-01-04T04:59:11.935Z,7.22
2018-01-04T05:00:12.344Z,7.23
2018-01-04T05:01:11.825Z,7.23
2018-01-04T05:02:12.120Z,7.22
2018-01-04T05:03:12.500Z,7.2
2018-01-04T05:04:12.669Z,7.16
2018-01-04T05:05:11.939Z,7.16
2018-01-04T05:06:12.183Z,7.16
2018-01-04T05:07:12.460Z,7.16
2018-01-04T05:08:11.660Z,7.15
2018-01-04T05:09:11.983Z,7.15
2018-01-04T05:10:12.288Z,7.14
2018-01-04T05:11:12.524Z,7.14
2018-01-04T05:12:11.864Z,7.15
2018-01-04T05:13:12.179Z,7.14
2018-01-04T05:14:12.508Z,7.14
2018-01-04T05:15:11.816Z,7.13
2018-01-04T05:16:12.217Z,7.14
2018-01-04T05:17:12.493Z,7.15
2018-01-04T05:18:11.948Z,7.14
2018-01-04T05:19:12.371Z,7.14
2018-01-04T05:20:11.854Z,7.13
2018-01-04T05:21:12.523Z,7.14
2018-01-04T05:22:11.870Z,7.14
2018-01-04T05:23:12.377Z,7.12
2018-01-04T05:24:12.084Z,7.13
2018-01-04T05:25:12.566Z,7.12
2018-01-04T05:26:12.201Z,7.12
2018-01-04T05:27:11.757Z,7.1
2018-01-04T05:28:12.205Z,7.09
2018-01-04T05:29:11.687Z,7.08
2018-01-04T05:30:11.885Z,7.09
2018-01-04T05:31:12.218Z,7.09
2018-01-04T05:32:12.576Z,7.09
2018-01-04T05:33:11.976Z,7.09
2018-01-04T05:34:12.166Z,7.08
2018-01-04T05:35:11.922Z,7.09
2018-01-04T05:36:12.151Z,7.09
2018-01-04T05:37:12.593Z,7.09
2018-01-04T05:38:11.898Z,7.07
2018-01-04T05:39:12.067Z,7.06
2018-01-04T05:40:12.382Z,7.06
2018-01-04T05:41:12.585Z,7.06
2018-01-04T05:42:12.679Z,7.05
2018-01-04T05:43:12.830Z,7.05
2018-01-04T05:44:12.270Z,7.05
2018-01-04T05:45:12.457Z,7.03
2018-01-04T05:46:12.001Z,7.03
2018-01-04T05:47:12.342Z,7.02
2018-01-04T05:48:12.658Z,7.01
2018-01-04T05:49:11.911Z,6.98
2018-01-04T05:50:12.113Z,6.98
2018-01-04T05:51:12.313Z,6.96
2018-01-04T05:52:12.509Z,6.94
2018-01-04T05:53:12.820Z,6.95
2018-01-04T05:54:12.888Z,6.92
2018-01-04T05:55:12.307Z,6.9
2018-01-04T05:56:12.757Z,6.88
2018-01-04T05:57:12.242Z,6.89
2018-01-04T05:58:12.534Z,6.88
2018-01-04T05:59:12.118Z,6.88
2018-01-04T06:00:12.402Z,6.85
2018-01-04T06:01:12.768Z,6.85
2018-01-04T06:02:12.062Z,6.83
2018-01-04T06:03:12.541Z,6.82
2018-01-04T06:04:12.827Z,6.8
2018-01-04T06:05:12.081Z,6.78
2018-01-04T06:06:12.267Z,6.79
2018-01-04T06:07:12.626Z,6.75
2018-01-04T06:08:12.986Z,6.74
2018-01-04T06:09:12.444Z,6.75
2018-01-04T06:10:12.818Z,6.71
2018-01-04T06:11:13.025Z,6.72
2018-01-04T06:12:12.213Z,6.7
2018-01-04T06:13:12.347Z,6.68
2018-01-04T06:14:12.774Z,6.69
2018-01-04T06:15:12.063Z,6.7
2018-01-04T06:16:12.491Z,6.68
2018-01-04T06:17:12.947Z,6.7
2018-01-04T06:18:12.541Z,6.68
2018-01-04T06:19:12.066Z,6.68
2018-01-04T06:20:12.457Z,6.65
2018-01-04T06:21:12.782Z,6.65
2018-01-04T06:22:12.084Z,6.66
2018-01-04T06:23:12.560Z,6.65
2018-01-04T06:24:12.966Z,6.66
2018-01-04T06:25:12.257Z,6.66
2018-01-04T06:26:12.397Z,6.64
2018-01-04T06:27:12.709Z,6.64
2018-01-04T06:28:12.992Z,6.65
2018-01-04T06:29:12.738Z,6.66
2018-01-04T06:30:12.250Z,6.64
2018-01-04T06:31:12.357Z,6.61
2018-01-04T06:32:12.553Z,6.61
2018-01-04T06:33:12.828Z,6.61
2018-01-04T06:34:12.078Z,6.62
2018-01-04T06:35:12.363Z,6.62
2018-01-04T06:36:11.648Z,6.63
2018-01-04T06:37:12.094Z,6.63
2018-01-04T06:38:11.582Z,6.64
2018-01-04T06:39:12.293Z,6.65
2018-01-04T06:40:11.874Z,6.65
2018-01-04T06:41:12.223Z,6.66
2018-01-04T06:42:11.581Z,6.65
2018-01-04T06:43:12.025Z,6.64
2018-01-04T06:44:12.212Z,6.6
2018-01-04T06:45:11.535Z,6.6
2018-01-04T06:46:11.713Z,6.61
2018-01-04T06:47:12.478Z,6.62
2018-01-04T06:48:11.902Z,6.62
2018-01-04T06:49:11.311Z,6.62
2018-01-04T06:50:11.464Z,6.62
2018-01-04T06:51:12.065Z,6.59
2018-01-04T06:52:11.549Z,6.6
2018-01-04T06:53:11.967Z,6.6
2018-01-04T06:54:11.493Z,6.6
2018-01-04T06:55:12.033Z,6.61
2018-01-04T06:56:11.471Z,6.6
2018-01-04T06:57:11.672Z,6.61
2018-01-04T06:58:12.233Z,6.61
2018-01-04T06:59:11.582Z,6.61
2018-01-04T07:00:11.634Z,6.61
2018-01-04T07:01:12.121Z,6.61
2018-01-04T07:02:11.839Z,6.59
2018-01-04T07:03:11.905Z,6.6
2018-01-04T07:04:12.277Z,6.57
2018-01-04T07:05:11.771Z,6.59
2018-01-04T07:06:12.242Z,6.58
2018-01-04T07:07:11.447Z,6.57
2018-01-04T07:08:11.572Z,6.52
2018-01-04T07:09:11.911Z,6.49
2018-01-04T07:10:11.382Z,6.46
2018-01-04T07:11:11.912Z,6.49
2018-01-04T07:12:11.292Z,6.48
2018-01-04T07:13:11.578Z,6.48
2018-01-04T07:14:11.719Z,6.47
2018-01-04T07:15:12.136Z,6.47
2018-01-04T07:16:11.729Z,6.45
2018-01-04T07:17:12.234Z,6.45
2018-01-04T07:18:11.524Z,6.46
2018-01-04T07:19:11.585Z,6.45
2018-01-04T07:20:11.973Z,6.45
2018-01-04T07:21:11.340Z,6.43
2018-01-04T07:22:11.758Z,6.44
2018-01-04T07:23:11.935Z,6.43
2018-01-04T07:24:11.400Z,6.43
2018-01-04T07:25:11.645Z,6.43
2018-01-04T07:26:11.925Z,6.41
2018-01-04T07:27:12.182Z,6.43
2018-01-04T07:28:11.430Z,6.42
2018-01-04T07:29:11.769Z,6.44
2018-01-04T07:30:12.135Z,6.42
2018-01-04T07:31:11.637Z,6.42
2018-01-04T07:32:11.735Z,6.41
2018-01-04T07:33:11.830Z,6.43
2018-01-04T07:34:12.012Z,6.4
2018-01-04T07:35:11.653Z,6.39
2018-01-04T07:36:12.083Z,6.38
2018-01-04T07:37:11.347Z,6.39
2018-01-04T07:38:11.432Z,6.39
2018-01-04T07:39:11.597Z,6.41
2018-01-04T07:40:11.781Z,6.41
2018-01-04T07:41:11.976Z,6.41
2018-01-04T07:42:12.081Z,6.42
2018-01-04T07:43:12.189Z,6.41
2018-01-04T07:44:11.422Z,6.43
2018-01-04T07:45:11.785Z,6.44
2018-01-04T07:46:11.327Z,6.44
2018-01-04T07:47:11.583Z,6.45
2018-01-04T07:48:11.810Z,6.45
2018-01-04T07:49:12.010Z,6.46
2018-01-04T07:50:12.119Z,6.45
2018-01-04T07:51:11.400Z,6.46
2018-01-04T07:52:11.733Z,6.44
2018-01-04T07:53:11.974Z,6.44
2018-01-04T07:54:12.085Z,6.45
2018-01-04T07:55:12.150Z,6.46
2018-01-04T07:56:12.348Z,6.47
2018-01-04T07:57:11.898Z,6.46
2018-01-04T07:58:11.958Z,6.48
2018-01-04T07:59:11.373Z,6.47
2018-01-04T08:00:11.706Z,6.45
2018-01-04T08:01:11.839Z,6.45
2018-01-04T08:02:12.143Z,6.44
2018-01-04T08:03:11.330Z,6.45
2018-01-04T08:04:22.814Z,6.43
2018-01-04T08:05:12.260Z,6.45
2018-01-04T08:06:11.509Z,6.43
2018-01-04T08:07:11.802Z,6.45
2018-01-04T08:08:12.094Z,6.45
2018-01-04T08:09:12.435Z,6.47
2018-01-04T08:10:12.638Z,6.47
2018-01-04T08:11:12.111Z,6.49
2018-01-04T08:12:12.548Z,6.49
2018-01-04T08:13:12.063Z,6.48
2018-01-04T08:14:12.279Z,6.47
2018-01-04T08:15:12.583Z,6.47
2018-01-04T08:16:12.208Z,6.47
2018-01-04T08:17:12.450Z,6.46
2018-01-04T08:18:12.758Z,6.46
2018-01-04T08:19:12.027Z,6.48
2018-01-04T08:20:12.279Z,6.48
2018-01-04T08:21:12.538Z,6.49
2018-01-04T08:22:11.977Z,6.48
2018-01-04T08:23:12.614Z,6.49
2018-01-04T08:24:11.823Z,6.5
2018-01-04T08:25:12.381Z,6.48
2018-01-04T08:26:12.766Z,6.5
2018-01-04T08:27:12.223Z,6.49
2018-01-04T08:28:12.609Z,6.5
2018-01-04T08:29:12.020Z,6.47
2018-01-04T08:30:12.552Z,6.47
2018-01-04T08:31:11.945Z,6.49
2018-01-04T08:32:12.257Z,6.49
2018-01-04T08:33:12.581Z,6.5
2018-01-04T08:34:11.905Z,6.5
2018-01-04T08:35:12.188Z,6.48
2018-01-04T08:36:12.614Z,6.49
2018-01-04T08:37:12.226Z,6.5
2018-01-04T08:38:11.509Z,6.51
2018-01-04T08:39:11.796Z,6.51
2018-01-04T08:40:12.021Z,6.52
2018-01-04T08:41:13.204Z,6.52
2018-01-04T08:42:11.522Z,6.52
2018-01-04T08:43:11.725Z,6.52
2018-01-04T08:44:12.005Z,6.51
2018-01-04T08:45:12.333Z,6.51
2018-01-04T08:46:11.591Z,6.52
2018-01-04T08:47:11.662Z,6.52
2018-01-04T08:48:11.806Z,6.54
2018-01-04T08:49:12.177Z,6.55
2018-01-04T08:50:11.650Z,6.56
2018-01-04T08:51:11.713Z,6.59
2018-01-04T08:52:11.973Z,6.6
2018-01-04T08:53:12.205Z,6.56
2018-01-04T08:54:11.509Z,6.58
2018-01-04T08:55:11.965Z,6.59
2018-01-04T08:56:11.486Z,6.61
2018-01-04T08:57:11.723Z,6.63
2018-01-04T08:58:12.114Z,6.63
2018-01-04T08:59:11.325Z,6.64
2018-01-04T09:00:11.649Z,6.65
2018-01-04T09:01:11.943Z,6.67
2018-01-04T09:02:11.438Z,6.68
2018-01-04T09:03:11.848Z,6.68
2018-01-04T09:04:12.008Z,6.68
2018-01-04T09:05:11.366Z,6.7
2018-01-04T09:06:11.641Z,6.7
2018-01-04T09:24:38.225Z,6.81
2018-01-04T09:25:38.575Z,6.79
2018-01-04T09:26:38.812Z,6.79
2018-01-04T09:28:55.595Z,6.82
2018-01-04T09:29:55.828Z,6.8
2018-01-04T10:45:28.905Z,7.54
2018-01-04T10:46:29.375Z,7.53
2018-01-04T10:47:28.768Z,7.52
2018-01-04T10:48:29.150Z,7.51
2018-01-04T10:49:29.308Z,7.52
2018-01-04T10:50:28.737Z,7.53
2018-01-04T10:51:29.082Z,7.53
2018-01-04T10:52:29.192Z,7.49
2018-01-04T10:53:29.486Z,7.44
2018-01-04T10:54:29.363Z,7.43
2018-01-04T10:55:29.529Z,7.45
2018-01-04T10:56:29.123Z,7.64
2018-01-04T10:57:29.280Z,7.68
2018-01-04T10:58:29.584Z,7.79
2018-01-04T10:59:29.086Z,7.88
2018-01-04T11:00:29.408Z,7.89
2018-01-04T11:01:28.840Z,7.86
2018-01-04T11:02:28.973Z,7.85
2018-01-04T11:03:29.234Z,7.79
2018-01-04T11:04:29.354Z,7.74
2018-01-04T11:05:29.608Z,7.71
2018-01-04T11:06:28.879Z,7.67
2018-01-04T11:07:29.432Z,7.66
2018-01-04T11:08:28.763Z,7.62
2018-01-04T11:09:29.365Z,7.62
2018-01-04T11:10:28.743Z,7.64
2018-01-04T11:11:29.038Z,7.6
2018-01-04T11:12:29.319Z,7.57
2018-01-04T11:13:28.675Z,7.55
2018-01-04T11:14:29.115Z,7.52
2018-01-04T11:15:29.704Z,7.47
2018-01-04T11:16:29.032Z,7.46
2018-01-04T11:17:29.767Z,7.43
2018-01-04T11:18:29.315Z,7.4
2018-01-04T11:19:28.744Z,7.44
2018-01-04T11:20:29.019Z,7.43
2018-01-04T11:21:29.392Z,7.4
2018-01-04T11:22:28.934Z,7.39
2018-01-04T11:23:29.407Z,7.4
2018-01-04T11:24:29.122Z,7.39
2018-01-04T11:25:28.928Z,7.39
2018-01-04T11:26:29.431Z,7.39
2018-01-04T11:27:28.897Z,7.4
2018-01-04T11:28:29.359Z,7.41
2018-01-04T11:29:29.067Z,7.39
2018-01-04T11:30:30.343Z,7.38
2018-01-04T11:31:29.390Z,7.4
2018-01-04T11:32:28.977Z,7.42
2018-01-04T11:33:29.595Z,7.43
2018-01-04T11:34:30.218Z,7.42
2018-01-04T11:35:29.331Z,7.43
2018-01-04T11:36:28.760Z,7.43
2018-01-04T11:37:29.044Z,7.45
2018-01-04T11:38:29.405Z,7.45
2018-01-04T11:39:28.723Z,7.45
2018-01-04T11:40:29.070Z,7.44
2018-01-04T11:41:29.464Z,7.46
2018-01-04T11:42:28.811Z,7.45
2018-01-04T11:43:29.508Z,7.45
2018-01-04T11:44:28.847Z,7.46
2018-01-04T11:45:29.235Z,7.47
2018-01-04T11:46:29.592Z,7.47
2018-01-04T11:47:28.737Z,7.48
2018-01-04T11:48:29.030Z,7.46
2018-01-04T11:49:29.189Z,7.45
2018-01-04T11:50:29.479Z,7.47
2018-01-04T11:51:29.044Z,7.48
2018-01-04T11:52:29.370Z,7.44
2018-01-04T11:53:29.162Z,7.46
2018-01-04T11:54:29.527Z,7.5
2018-01-04T11:55:28.668Z,7.49
2018-01-04T11:56:29.177Z,7.49
2018-01-04T11:57:29.322Z,7.47
2018-01-04T11:58:28.725Z,7.5
2018-01-04T11:59:29.257Z,7.5
2018-01-04T12:00:28.652Z,7.48
2018-01-04T12:01:29.170Z,7.47
2018-01-04T12:02:28.874Z,7.46
2018-01-04T12:03:29.403Z,7.45
2018-01-04T12:04:28.718Z,7.45
2018-01-04T12:05:29.180Z,7.44
2018-01-04T12:06:30.569Z,7.44
2018-01-04T12:07:28.878Z,7.44
2018-01-04T12:08:29.338Z,7.42
2018-01-04T12:09:28.791Z,7.41
2018-01-04T12:10:29.057Z,7.4
2018-01-04T12:11:30.809Z,7.4
2018-01-04T12:12:29.074Z,7.39
2018-01-04T12:13:30.598Z,7.4
2018-01-04T12:14:29.287Z,7.41
2018-01-04T12:15:28.989Z,7.4
2018-01-04T12:16:28.708Z,7.41
2018-01-04T12:17:29.012Z,7.41
2018-01-04T12:18:30.748Z,7.41
2018-01-04T12:19:29.207Z,7.41
2018-01-04T12:20:30.594Z,7.4
2018-01-04T12:21:30.012Z,7.38
2018-01-04T12:22:29.150Z,7.37
2018-01-04T12:23:30.842Z,7.37
2018-01-04T12:24:29.741Z,7.39
2018-01-04T12:25:29.170Z,7.39
2018-01-04T12:26:29.944Z,7.4
2018-01-04T12:27:29.322Z,7.38
2018-01-04T12:28:29.790Z,7.39
2018-01-04T12:29:29.331Z,7.39
2018-01-04T12:30:29.874Z,7.39
2018-01-04T12:31:29.201Z,7.4
2018-01-04T12:32:29.746Z,7.39
2018-01-04T12:33:29.354Z,7.39
2018-01-04T12:34:29.705Z,7.39
2018-01-04T12:35:29.423Z,7.37
2018-01-04T12:36:29.734Z,7.38
2018-01-04T12:37:29.528Z,7.38
2018-01-04T12:38:29.911Z,7.4
2018-01-04T12:39:29.361Z,7.4
2018-01-04T12:40:29.600Z,7.41
2018-01-04T12:41:29.609Z,7.4
2018-01-04T12:42:29.407Z,7.4
2018-01-04T12:43:29.765Z,7.39
2018-01-04T12:44:29.130Z,7.39
2018-01-04T12:45:29.620Z,7.39
2018-01-04T12:46:29.944Z,7.39
2018-01-04T12:47:29.289Z,7.42
2018-01-04T12:48:28.410Z,7.41
2018-01-04T12:49:28.826Z,7.42
2018-01-04T12:50:28.337Z,7.41
2018-01-04T12:51:28.868Z,7.42
2018-01-04T12:52:29.194Z,7.42
2018-01-04T12:53:28.935Z,7.43
2018-01-04T12:54:28.430Z,7.42
2018-01-04T12:55:28.871Z,7.42
2018-01-04T12:56:29.117Z,7.42
2018-01-04T12:57:28.574Z,7.42
2018-01-04T12:58:29.048Z,7.44
2018-01-04T12:59:28.872Z,7.45
2018-01-04T13:00:28.378Z,7.46
2018-01-04T13:01:28.537Z,7.47
2018-01-04T13:02:28.803Z,7.48
2018-01-04T13:03:28.421Z,7.48
2018-01-04T13:04:28.981Z,7.49
2018-01-04T13:05:28.462Z,7.5
2018-01-04T13:06:29.059Z,7.5
2018-01-04T13:07:28.389Z,7.5
2018-01-04T13:08:29.005Z,7.5
2018-01-04T13:09:28.486Z,7.49
2018-01-04T13:10:28.904Z,7.51
2018-01-04T13:11:29.266Z,7.51
2018-01-04T13:12:28.853Z,7.51
2018-01-04T13:13:28.280Z,7.51
2018-01-04T13:14:29.061Z,7.51
2018-01-04T13:15:28.491Z,7.51
2018-01-04T13:16:28.906Z,7.51
2018-01-04T13:17:29.133Z,7.52
2018-01-04T13:18:28.900Z,7.53
2018-01-04T13:19:29.340Z,7.53
2018-01-04T13:20:29.774Z,7.53
2018-01-04T13:21:29.285Z,7.54
2018-01-04T13:22:29.805Z,7.54
2018-01-04T13:23:29.342Z,7.54
2018-01-04T13:24:29.259Z,7.56
2018-01-04T13:25:30.086Z,7.55
2018-01-04T13:26:29.217Z,7.56
2018-01-04T13:27:29.496Z,7.57
2018-01-04T13:28:28.845Z,7.57
2018-01-04T13:29:29.485Z,7.58
2018-01-04T13:30:29.848Z,7.59
2018-01-04T13:31:29.377Z,7.59
2018-01-04T13:32:29.666Z,7.61
2018-01-04T13:33:28.896Z,7.61
2018-01-04T13:34:29.193Z,7.62
2018-01-04T13:35:29.603Z,7.62
2018-01-04T13:36:29.344Z,7.63
2018-01-04T13:37:29.783Z,7.63
2018-01-04T13:38:29.173Z,7.63
2018-01-04T13:39:29.588Z,7.64
2018-01-04T13:40:28.996Z,7.65
2018-01-04T13:41:29.411Z,7.65
2018-01-04T13:42:28.995Z,7.67
2018-01-04T13:43:29.580Z,7.67
2018-01-04T13:44:29.093Z,7.68
2018-01-04T13:45:29.261Z,7.69
2018-01-04T13:46:29.359Z,7.7
2018-01-04T13:47:29.586Z,7.71
2018-01-04T13:48:29.041Z,7.72
2018-01-04T13:49:29.632Z,7.73
2018-01-04T13:50:29.907Z,7.73
2018-01-04T13:51:29.436Z,7.74
2018-01-04T13:52:30.001Z,7.75
2018-01-04T13:53:29.412Z,7.76
2018-01-04T13:54:29.270Z,7.77
2018-01-04T13:55:29.414Z,7.79
2018-01-04T13:56:29.728Z,7.78
2018-01-04T13:57:29.125Z,7.81
2018-01-04T14:00:29.348Z,7.82
2018-01-04T14:01:29.542Z,7.84
2018-01-04T14:02:28.951Z,7.84
2018-01-04T14:03:29.172Z,7.84
2018-01-04T14:04:29.829Z,7.86
2018-01-04T14:05:29.634Z,7.86
2018-01-04T14:06:29.950Z,7.88
2018-01-04T14:07:29.252Z,7.88
2018-01-04T14:08:29.723Z,7.88
2018-01-04T14:09:29.366Z,7.88
2018-01-04T14:10:29.830Z,7.9
2018-01-04T14:11:29.555Z,7.9
2018-01-04T14:12:29.949Z,7.9
2018-01-04T14:13:29.420Z,7.93
2018-01-04T14:15:29.557Z,7.94
2018-01-04T14:16:28.961Z,7.93
2018-01-04T14:17:29.238Z,7.94
2018-01-04T14:18:29.414Z,7.95
2018-01-04T14:19:28.370Z,7.95
2018-01-04T14:20:29.050Z,7.96
2018-01-04T14:21:28.431Z,7.96
2018-01-04T14:22:28.803Z,7.97
2018-01-04T14:23:29.233Z,7.99
2018-01-04T14:24:28.647Z,8
2018-01-04T14:25:29.332Z,8.01
2018-01-04T14:26:28.776Z,8.03
2018-01-04T14:27:29.250Z,8.03
2018-01-04T14:28:28.726Z,8.04
2018-01-04T14:29:29.115Z,8.06
2018-01-04T14:30:29.302Z,8.06
2018-01-04T14:31:28.627Z,8.08
2018-01-04T14:32:28.970Z,8.09
2018-01-04T14:33:28.544Z,8.11
2018-01-04T14:34:28.719Z,8.13
2018-01-04T14:35:29.131Z,8.13
2018-01-04T14:36:28.472Z,8.15
2018-01-04T14:37:28.862Z,8.16
2018-01-04T14:38:29.483Z,8.19
2018-01-04T14:39:28.538Z,8.2
2018-01-04T14:40:28.940Z,8.2
2018-01-04T14:41:28.496Z,8.23
2018-01-04T14:42:28.742Z,8.24
2018-01-04T14:43:29.159Z,8.27
2018-01-04T14:44:28.630Z,8.3
2018-01-04T14:45:28.913Z,8.37
2018-01-04T14:46:29.259Z,8.42
2018-01-04T14:47:28.665Z,8.41
2018-01-04T14:48:28.931Z,8.44
2018-01-04T14:49:29.194Z,8.47
2018-01-04T14:50:28.443Z,8.53
2018-01-04T14:51:28.885Z,8.67
2018-01-04T14:52:29.186Z,8.7
2018-01-04T14:53:28.692Z,8.73
2018-01-04T14:54:29.018Z,8.8
2018-01-04T14:55:28.425Z,8.84
2018-01-04T14:56:28.838Z,8.92